Time;durP1;ratioP1;P1;durP2;ratioP2;P2;SDS_P1;SDS_P2;PMS_P1;PMS_P2;Temp;Humidity;BMP_temperature;BMP_pressure;BME280_temperature;BME280_humidity;BME280_pressure;Samples;Min_cycle;Max_cycle;Signal;HPM_P1;HPM_P2
2022/09/22 00:00:42;;;;;;;5.57;2.77;;;10.70;99.90;;;;;;5050194;28;20409;-75
2022/09/22 00:03:08;;;;;;;4.35;2.95;;;10.70;99.90;;;;;;5050659;28;20466;-75
2022/09/22 00:05:34;;;;;;;6.05;2.63;;;10.60;99.90;;;;;;5049816;28;20417;-75
2022/09/22 00:08:00;;;;;;;4.65;2.70;;;10.60;99.90;;;;;;5049854;28;20413;-75
2022/09/22 00:10:27;;;;;;;6.05;2.70;;;10.60;99.90;;;;;;5032392;28;20815;-75
2022/09/22 00:12:53;;;;;;;5.25;2.70;;;10.60;99.90;;;;;;5050222;28;20401;-75
2022/09/22 00:15:19;;;;;;;5.50;2.70;;;10.50;99.90;;;;;;5050158;28;20409;-75
2022/09/22 00:17:45;;;;;;;5.70;2.83;;;10.50;99.90;;;;;;5043103;28;20416;-75
2022/09/22 00:20:12;;;;;;;5.50;2.60;;;10.50;99.90;;;;;;5031629;28;20420;-75
2022/09/22 00:22:39;;;;;;;8.38;2.70;;;10.50;99.90;;;;;;5042416;28;20774;-75
2022/09/22 00:25:06;;;;;;;7.97;3.00;;;10.50;99.90;;;;;;5070465;28;20413;-75
2022/09/22 00:27:32;;;;;;;6.32;2.63;;;10.50;99.90;;;;;;5067518;28;20424;-75
2022/09/22 00:29:57;;;;;;;6.68;2.72;;;10.40;99.90;;;;;;5060534;28;20453;-75
2022/09/22 00:32:23;;;;;;;4.57;2.70;;;10.40;99.90;;;;;;5055049;28;20408;-75
2022/09/22 00:34:49;;;;;;;6.65;2.42;;;10.40;99.90;;;;;;5063242;28;20409;-75
2022/09/22 00:37:15;;;;;;;4.37;2.73;;;10.40;99.90;;;;;;5070080;28;20422;-75
2022/09/22 00:39:40;;;;;;;6.95;2.97;;;10.40;99.90;;;;;;5050245;28;20401;-75
2022/09/22 00:42:06;;;;;;;4.13;2.60;;;10.30;99.90;;;;;;5050117;28;20480;-75
2022/09/22 00:44:40;;;;;;;6.73;2.80;;;10.30;99.90;;;;;;5049696;28;20405;-75
2022/09/22 00:47:24;;;;;;;4.47;2.53;;;10.30;99.90;;;;;;5049646;28;20495;-75
2022/09/22 00:50:02;;;;;;;8.80;2.80;;;10.30;99.90;;;;;;5049325;28;20810;-75
2022/09/22 00:52:34;;;;;;;5.50;2.70;;;10.30;99.90;;;;;;5049306;28;20500;-75
2022/09/22 00:55:03;;;;;;;5.55;2.88;;;10.20;99.90;;;;;;5056819;28;20412;-75
2022/09/22 00:57:32;;;;;;;5.90;3.13;;;10.20;99.90;;;;;;5058903;28;20405;-75
2022/09/22 01:00:00;;;;;;;6.00;2.60;;;10.20;99.90;;;;;;5049833;28;20991;-75
2022/09/22 01:02:26;;;;;;;5.23;2.87;;;10.20;99.90;;;;;;5041234;28;20441;-75
2022/09/22 01:04:52;;;;;;;5.43;2.70;;;10.20;99.90;;;;;;5061068;28;20416;-75
2022/09/22 01:07:20;;;;;;;7.00;2.88;;;10.10;99.90;;;;;;5060981;28;20406;-75
2022/09/22 01:09:46;;;;;;;7.25;2.75;;;10.10;99.90;;;;;;5061315;28;20460;-75
2022/09/22 01:12:11;;;;;;;6.37;3.07;;;10.10;99.90;;;;;;5053360;28;20409;-75
2022/09/22 01:15:04;;;;;;;7.07;3.28;;;10.10;99.90;;;;;;5049792;28;20477;-75
2022/09/22 01:18:02;;;;;;;7.63;3.00;;;10.00;99.90;;;;;;5049553;28;20476;-75
2022/09/22 01:21:12;;;;;;;5.45;2.97;;;10.00;99.90;;;;;;5004663;28;20424;-75
2022/09/22 01:24:09;;;;;;;7.50;3.25;;;10.00;99.90;;;;;;5049074;28;20425;-75
2022/09/22 01:26:56;;;;;;;6.45;3.08;;;10.00;99.90;;;;;;5049030;28;20981;-75
2022/09/22 01:30:16;;;;;;;6.43;2.80;;;9.90;99.90;;;;;;5048730;28;20426;-75
2022/09/22 01:33:05;;;;;;;7.07;3.20;;;9.90;99.90;;;;;;4966993;28;20432;-75
2022/09/22 01:35:45;;;;;;;6.25;2.92;;;9.80;99.90;;;;;;5027476;28;20497;-75
2022/09/22 01:38:41;;;;;;;5.38;2.88;;;9.80;99.90;;;;;;5048399;28;20406;-75
2022/09/22 01:41:14;;;;;;;5.30;3.08;;;9.80;99.90;;;;;;5030533;28;20418;-75
2022/09/22 01:43:59;;;;;;;5.88;3.22;;;9.80;99.90;;;;;;5048533;28;20404;-75
2022/09/22 01:46:39;;;;;;;7.72;3.45;;;9.70;99.90;;;;;;5060548;28;20418;-75
2022/09/22 01:49:08;;;;;;;5.60;2.92;;;9.70;99.90;;;;;;5048435;28;20512;-75
2022/09/22 01:51:47;;;;;;;5.22;3.30;;;9.70;99.90;;;;;;5047866;28;20945;-75
2022/09/22 01:54:25;;;;;;;7.35;3.33;;;9.60;99.90;;;;;;5047697;28;20410;-75
2022/09/22 01:56:57;;;;;;;8.35;3.38;;;9.60;99.90;;;;;;5048109;28;20413;-75
2022/09/22 01:59:27;;;;;;;5.45;3.10;;;9.60;99.90;;;;;;5030112;28;20467;-75
2022/09/22 02:02:02;;;;;;;6.75;3.30;;;9.60;99.90;;;;;;5048059;28;20442;-75
2022/09/22 02:04:40;;;;;;;5.93;3.28;;;9.60;99.90;;;;;;5017308;28;20488;-75
2022/09/22 02:07:11;;;;;;;5.53;3.22;;;9.50;99.90;;;;;;5047615;28;20479;-75
2022/09/22 02:09:41;;;;;;;5.22;3.30;;;9.50;99.90;;;;;;5047412;28;20425;-75
2022/09/22 02:12:07;;;;;;;6.70;3.08;;;9.50;99.90;;;;;;5030030;28;20488;-75
2022/09/22 02:14:32;;;;;;;5.03;3.30;;;9.50;99.90;;;;;;5047663;28;20447;-75
2022/09/22 02:16:59;;;;;;;6.77;3.80;;;9.40;99.90;;;;;;5029734;28;20413;-75
2022/09/22 02:19:38;;;;;;;6.95;3.63;;;9.40;99.90;;;;;;5047140;28;20404;-75
2022/09/22 02:22:06;;;;;;;5.65;3.33;;;9.40;99.90;;;;;;5029321;28;20471;-75
2022/09/22 02:24:34;;;;;;;6.00;3.10;;;9.30;99.90;;;;;;5047959;28;20393;-75
2022/09/22 02:27:04;;;;;;;8.60;3.40;;;9.30;99.90;;;;;;5047037;28;20413;-75
2022/09/22 02:29:36;;;;;;;7.15;3.25;;;9.30;99.90;;;;;;5047557;28;20433;-74
2022/09/22 02:32:06;;;;;;;6.50;3.63;;;9.20;99.90;;;;;;5029791;28;20428;-75
2022/09/22 02:34:32;;;;;;;8.52;3.83;;;9.20;99.90;;;;;;5047329;28;20448;-75
2022/09/22 02:37:20;;;;;;;7.32;3.67;;;9.20;99.90;;;;;;5029746;28;20489;-75
2022/09/22 02:40:18;;;;;;;6.18;3.30;;;9.20;99.90;;;;;;5047444;28;20422;-75
2022/09/22 02:43:00;;;;;;;6.25;3.33;;;9.20;99.90;;;;;;5047366;28;20444;-75
2022/09/22 02:45:32;;;;;;;7.90;3.65;;;9.10;99.90;;;;;;5047606;28;20448;-75
2022/09/22 02:47:57;;;;;;;8.47;3.50;;;9.10;99.90;;;;;;5030036;28;20401;-75
2022/09/22 02:50:25;;;;;;;7.85;3.42;;;9.00;99.90;;;;;;5046813;28;20428;-75
2022/09/22 02:52:55;;;;;;;8.13;3.80;;;9.00;99.90;;;;;;5025965;28;20753;-74
2022/09/22 02:55:20;;;;;;;8.13;3.53;;;9.00;99.90;;;;;;5039083;28;20406;-75
2022/09/22 02:57:46;;;;;;;9.68;3.70;;;9.00;99.90;;;;;;5046478;28;20761;-75
2022/09/22 03:00:12;;;;;;;6.97;3.60;;;9.00;99.90;;;;;;5045125;28;20406;-75
2022/09/22 03:02:38;;;;;;;6.90;3.60;;;8.90;99.90;;;;;;5033923;28;20762;-74
2022/09/22 03:05:04;;;;;;;5.97;3.75;;;9.00;99.90;;;;;;5055425;28;20542;-75
2022/09/22 03:07:30;;;;;;;9.23;3.85;;;8.90;99.90;;;;;;5012776;28;20456;-75
2022/09/22 03:09:55;;;;;;;6.90;3.63;;;8.90;99.90;;;;;;5046481;28;20808;-75
2022/09/22 03:12:21;;;;;;;7.23;3.27;;;8.90;99.90;;;;;;5047154;28;20476;-75
2022/09/22 03:14:48;;;;;;;7.68;3.60;;;8.80;99.90;;;;;;5029258;28;20775;-75
2022/09/22 03:17:14;;;;;;;7.75;4.10;;;8.80;99.90;;;;;;5047027;28;20432;-75
2022/09/22 03:19:40;;;;;;;6.88;3.90;;;8.80;99.90;;;;;;5046675;28;20401;-75
2022/09/22 03:22:05;;;;;;;7.37;4.33;;;8.80;99.90;;;;;;5046728;28;20883;-75
2022/09/22 03:24:31;;;;;;;8.85;4.13;;;8.70;99.90;;;;;;5047235;28;20397;-75
2022/09/22 03:26:57;;;;;;;9.10;4.53;;;8.70;99.90;;;;;;5050130;28;20438;-75
2022/09/22 03:29:22;;;;;;;10.15;4.55;;;8.70;99.90;;;;;;5033095;28;20535;-75
2022/09/22 03:31:48;;;;;;;10.17;4.73;;;8.70;99.90;;;;;;5013372;28;20565;-75
2022/09/22 03:34:14;;;;;;;8.77;4.40;;;8.70;99.90;;;;;;5049635;28;20875;-75
2022/09/22 03:36:39;;;;;;;7.55;4.15;;;8.70;99.90;;;;;;5050719;28;20408;-75
2022/09/22 03:39:05;;;;;;;9.30;4.80;;;8.70;99.90;;;;;;5050563;28;20415;-75
2022/09/22 03:41:30;;;;;;;7.45;4.32;;;8.70;99.90;;;;;;5050759;28;20406;-75
2022/09/22 03:43:57;;;;;;;9.07;4.40;;;8.60;99.90;;;;;;5050370;28;20429;-74
2022/09/22 03:46:23;;;;;;;7.88;3.95;;;8.70;99.90;;;;;;5050570;28;20414;-75
2022/09/22 03:48:49;;;;;;;8.45;4.40;;;8.60;99.90;;;;;;5048685;28;20417;-75
2022/09/22 03:51:15;;;;;;;9.45;4.57;;;8.60;99.90;;;;;;5033218;28;20421;-75
2022/09/22 03:53:40;;;;;;;6.43;4.47;;;8.60;99.90;;;;;;5050067;28;20933;-75
2022/09/22 03:56:12;;;;;;;7.88;4.45;;;8.60;99.90;;;;;;5050327;28;20917;-75
2022/09/22 03:58:39;;;;;;;11.02;4.95;;;8.60;99.90;;;;;;5032320;28;20492;-75
2022/09/22 04:01:06;;;;;;;9.52;4.70;;;8.50;99.90;;;;;;5029296;28;20908;-75
2022/09/22 04:03:32;;;;;;;8.45;4.38;;;8.50;99.90;;;;;;5050237;28;20406;-74
2022/09/22 04:05:57;;;;;;;9.40;4.63;;;8.50;99.90;;;;;;5050017;28;20492;-75
2022/09/22 04:08:23;;;;;;;10.23;4.60;;;8.50;99.90;;;;;;5049263;28;20520;-75
2022/09/22 04:10:49;;;;;;;9.63;4.80;;;8.50;99.90;;;;;;5049772;28;20495;-75
2022/09/22 04:13:15;;;;;;;7.10;4.78;;;8.50;99.90;;;;;;5050018;28;20467;-74
2022/09/22 04:15:40;;;;;;;6.80;4.73;;;8.40;99.90;;;;;;5050175;28;20811;-75
2022/09/22 04:18:06;;;;;;;10.93;4.72;;;8.40;99.90;;;;;;5049783;28;21186;-75
2022/09/22 04:20:32;;;;;;;8.33;4.90;;;8.40;99.90;;;;;;5049930;28;20405;-75
2022/09/22 04:22:57;;;;;;;8.68;4.70;;;8.40;99.90;;;;;;5031358;28;20463;-75
2022/09/22 04:25:23;;;;;;;9.05;4.75;;;8.40;99.90;;;;;;5032182;28;20409;-75
2022/09/22 04:27:49;;;;;;;8.87;4.60;;;8.40;99.90;;;;;;5049671;28;20481;-75
2022/09/22 04:30:15;;;;;;;7.93;5.17;;;8.40;99.90;;;;;;5028919;28;20465;-75
2022/09/22 04:32:41;;;;;;;9.23;5.05;;;8.30;99.90;;;;;;5047985;28;20455;-75
2022/09/22 04:35:07;;;;;;;12.52;5.40;;;8.30;99.90;;;;;;5031854;28;21056;-75
2022/09/22 04:37:33;;;;;;;8.57;5.03;;;8.30;99.90;;;;;;5049600;28;20513;-75
2022/09/22 04:39:58;;;;;;;8.00;4.90;;;8.30;99.90;;;;;;5049663;28;20492;-75
2022/09/22 04:42:25;;;;;;;7.70;4.97;;;8.30;99.90;;;;;;5048226;28;20931;-75
2022/09/22 04:44:50;;;;;;;8.88;5.25;;;8.30;99.90;;;;;;5049887;28;20441;-74
2022/09/22 04:47:16;;;;;;;7.60;4.70;;;8.30;99.90;;;;;;5030978;28;20946;-75
2022/09/22 04:49:42;;;;;;;11.40;5.78;;;8.30;99.90;;;;;;5058070;28;20427;-76
2022/09/22 04:52:08;;;;;;;9.50;5.10;;;8.30;99.90;;;;;;5049167;28;20848;-75
2022/09/22 04:54:34;;;;;;;9.53;5.23;;;8.20;99.90;;;;;;5031425;28;20410;-75
2022/09/22 04:57:00;;;;;;;10.40;5.20;;;8.20;99.90;;;;;;5049568;28;20491;-75
2022/09/22 04:59:25;;;;;;;10.25;6.07;;;8.20;99.90;;;;;;5031346;28;20404;-75
2022/09/22 05:01:51;;;;;;;10.13;5.53;;;8.20;99.90;;;;;;5048281;28;20781;-75
2022/09/22 05:04:17;;;;;;;9.57;5.43;;;8.20;99.90;;;;;;5049520;28;20458;-75
2022/09/22 05:06:42;;;;;;;10.57;5.53;;;8.20;99.90;;;;;;5030751;28;20417;-75
2022/09/22 05:09:08;;;;;;;9.40;5.60;;;8.20;99.90;;;;;;5049080;28;20862;-75
2022/09/22 05:11:34;;;;;;;8.77;5.88;;;8.20;99.90;;;;;;5048366;28;20437;-75
2022/09/22 05:14:01;;;;;;;11.87;5.63;;;8.20;99.90;;;;;;5031168;28;20949;-74
2022/09/22 05:16:26;;;;;;;10.77;5.63;;;8.20;99.90;;;;;;5048850;28;20451;-75
2022/09/22 05:18:52;;;;;;;10.18;5.60;;;8.20;99.90;;;;;;5048508;28;20414;-75
2022/09/22 05:21:17;;;;;;;11.03;5.50;;;8.20;99.90;;;;;;5030805;28;20413;-75
2022/09/22 05:23:44;;;;;;;10.98;5.45;;;8.20;99.90;;;;;;5048124;28;20977;-74
2022/09/22 05:26:10;;;;;;;10.93;5.53;;;8.20;99.90;;;;;;5048067;28;20419;-75
2022/09/22 05:28:35;;;;;;;9.02;5.60;;;8.20;99.90;;;;;;5048369;28;20397;-75
2022/09/22 05:31:02;;;;;;;12.20;6.00;;;8.20;99.90;;;;;;5048283;28;20460;-76
2022/09/22 05:33:28;;;;;;;10.40;5.50;;;8.20;99.90;;;;;;5047810;28;20467;-75
2022/09/22 05:35:53;;;;;;;11.20;5.57;;;8.20;99.90;;;;;;5048007;28;20402;-75
2022/09/22 05:38:19;;;;;;;13.10;5.90;;;8.20;99.90;;;;;;5047907;28;20460;-75
2022/09/22 05:40:46;;;;;;;8.47;5.77;;;8.20;99.90;;;;;;5031241;28;20406;-76
2022/09/22 05:43:11;;;;;;;11.10;6.25;;;8.20;99.90;;;;;;5047027;28;20417;-75
2022/09/22 05:45:37;;;;;;;9.67;6.33;;;8.20;99.90;;;;;;5030165;28;20401;-75
2022/09/22 05:48:03;;;;;;;10.07;6.38;;;8.20;99.90;;;;;;5029842;28;20878;-75
2022/09/22 05:50:29;;;;;;;8.85;5.88;;;8.20;99.90;;;;;;5013568;28;20448;-75
2022/09/22 05:53:06;;;;;;;9.40;6.70;;;8.20;99.90;;;;;;5047885;28;20914;-75
2022/09/22 05:55:32;;;;;;;12.55;7.10;;;8.20;99.90;;;;;;5047981;28;20487;-75
2022/09/22 05:57:59;;;;;;;12.52;7.00;;;8.30;99.90;;;;;;5030425;28;20492;-74
2022/09/22 06:00:25;;;;;;;12.45;7.10;;;8.30;99.90;;;;;;5048331;28;20416;-74
2022/09/22 06:02:51;;;;;;;13.70;6.93;;;8.40;99.90;;;;;;5047202;28;20958;-74
2022/09/22 06:05:16;;;;;;;12.93;7.25;;;8.40;99.90;;;;;;5043774;28;20441;-74
2022/09/22 06:07:42;;;;;;;12.05;7.30;;;8.40;99.90;;;;;;5034781;28;20417;-74
2022/09/22 06:10:10;;;;;;;12.23;6.93;;;8.50;99.90;;;;;;5046805;28;20433;-74
2022/09/22 06:12:36;;;;;;;9.48;6.50;;;8.50;99.90;;;;;;5041981;28;20429;-74
2022/09/22 06:15:03;;;;;;;10.27;6.75;;;8.60;99.90;;;;;;5047463;28;20425;-74
2022/09/22 06:17:30;;;;;;;9.93;6.70;;;8.60;99.90;;;;;;5047114;28;20930;-74
2022/09/22 06:19:56;;;;;;;8.70;6.20;;;8.70;99.90;;;;;;5047170;28;20421;-74
2022/09/22 06:22:23;;;;;;;10.07;6.07;;;8.70;99.90;;;;;;5047602;28;20818;-74
2022/09/22 06:24:49;;;;;;;10.65;6.40;;;8.80;99.90;;;;;;5047335;28;20858;-74
2022/09/22 06:27:15;;;;;;;10.43;6.20;;;8.90;99.90;;;;;;5048293;28;20409;-74
2022/09/22 06:29:41;;;;;;;11.43;6.63;;;8.90;99.90;;;;;;5027685;28;20842;-74
2022/09/22 06:32:09;;;;;;;11.27;6.72;;;8.90;99.90;;;;;;5046791;28;21079;-74
2022/09/22 06:34:36;;;;;;;9.35;6.50;;;9.00;99.90;;;;;;5029648;28;20401;-74
2022/09/22 06:37:08;;;;;;;9.85;6.95;;;9.00;99.90;;;;;;5031589;28;20409;-75
2022/09/22 06:39:37;;;;;;;10.05;7.32;;;9.10;99.90;;;;;;5028722;28;20426;-75
2022/09/22 06:42:04;;;;;;;11.25;6.82;;;9.10;99.90;;;;;;5048496;28;20409;-75
2022/09/22 06:44:30;;;;;;;9.52;6.90;;;9.20;99.90;;;;;;5048352;28;20393;-75
2022/09/22 06:46:56;;;;;;;9.20;6.90;;;9.20;99.90;;;;;;5014162;28;20505;-74
2022/09/22 06:49:22;;;;;;;11.02;7.05;;;9.30;99.90;;;;;;5047406;28;20429;-74
2022/09/22 06:51:48;;;;;;;9.77;6.85;;;9.30;99.90;;;;;;5047750;28;20413;-75
2022/09/22 06:54:14;;;;;;;12.13;7.70;;;9.30;99.90;;;;;;5051669;28;20429;-75
2022/09/22 06:56:42;;;;;;;11.27;7.63;;;9.40;99.90;;;;;;5040578;28;20409;-74
2022/09/22 06:59:12;;;;;;;11.97;7.50;;;9.40;99.90;;;;;;5057800;28;20413;-75
2022/09/22 07:01:39;;;;;;;12.77;7.82;;;9.50;99.90;;;;;;5061858;28;20405;-75
2022/09/22 07:04:05;;;;;;;13.05;8.00;;;9.50;99.90;;;;;;5054899;28;20448;-75
2022/09/22 07:06:32;;;;;;;16.13;8.55;;;9.60;99.90;;;;;;5052081;28;20441;-75
2022/09/22 07:08:58;;;;;;;12.55;7.97;;;9.60;99.90;;;;;;5051131;28;20433;-75
2022/09/22 07:11:23;;;;;;;12.10;8.20;;;9.70;99.90;;;;;;5052316;28;20393;-75
2022/09/22 07:13:52;;;;;;;13.23;8.20;;;9.70;99.90;;;;;;5051050;28;20919;-75
2022/09/22 07:16:19;;;;;;;10.48;8.30;;;9.80;99.90;;;;;;5034350;28;20416;-75
2022/09/22 07:18:51;;;;;;;12.18;7.95;;;9.90;99.90;;;;;;5051665;28;20466;-75
2022/09/22 07:21:19;;;;;;;12.40;8.57;;;9.90;99.90;;;;;;5049378;28;20420;-74
2022/09/22 07:23:48;;;;;;;14.60;8.43;;;10.00;99.90;;;;;;5050162;28;20416;-75
2022/09/22 07:26:16;;;;;;;14.95;9.20;;;10.10;99.90;;;;;;5059234;28;20427;-75
2022/09/22 07:28:42;;;;;;;11.95;8.57;;;10.10;99.90;;;;;;5043468;28;20496;-75
2022/09/22 07:31:13;;;;;;;12.90;8.50;;;10.20;99.90;;;;;;5045326;28;20474;-75
2022/09/22 07:33:41;;;;;;;12.07;8.43;;;10.30;99.90;;;;;;5040909;28;20421;-74
2022/09/22 07:36:14;;;;;;;13.67;9.30;;;10.40;99.90;;;;;;5038536;28;20407;-74
2022/09/22 07:38:42;;;;;;;13.38;9.48;;;10.40;99.90;;;;;;5049466;28;20401;-75
2022/09/22 07:41:10;;;;;;;14.40;8.60;;;10.50;99.90;;;;;;5051486;28;20903;-74
2022/09/22 07:43:37;;;;;;;15.32;8.40;;;10.60;99.90;;;;;;5044756;28;20749;-74
2022/09/22 07:46:03;;;;;;;10.55;8.27;;;10.60;99.90;;;;;;5043700;28;20442;-74
2022/09/22 07:48:36;;;;;;;12.80;8.25;;;10.70;99.90;;;;;;5044985;28;21148;-75
2022/09/22 07:51:20;;;;;;;12.23;7.63;;;10.80;99.90;;;;;;5068892;28;20432;-75
2022/09/22 07:54:01;;;;;;;12.73;7.43;;;10.80;99.90;;;;;;5052566;28;20970;-75
2022/09/22 07:56:29;;;;;;;12.05;7.18;;;10.90;99.90;;;;;;5049325;28;21018;-75
2022/09/22 07:58:55;;;;;;;9.75;6.53;;;11.00;99.90;;;;;;5054461;28;20415;-75
2022/09/22 08:01:25;;;;;;;11.35;6.97;;;11.10;99.90;;;;;;5060723;28;20401;-75
2022/09/22 08:03:51;;;;;;;9.93;6.55;;;11.20;99.90;;;;;;5033234;28;20425;-75
2022/09/22 08:06:18;;;;;;;12.25;6.70;;;11.20;99.90;;;;;;5048127;28;20772;-77
2022/09/22 08:08:52;;;;;;;9.68;6.65;;;11.30;99.90;;;;;;5053649;28;20498;-77
2022/09/22 08:11:21;;;;;;;9.75;6.60;;;11.40;99.90;;;;;;5050081;28;20424;-75
2022/09/22 08:13:52;;;;;;;8.35;6.03;;;11.50;99.90;;;;;;5048263;28;20435;-74
2022/09/22 08:16:19;;;;;;;9.48;6.90;;;11.60;99.90;;;;;;5034362;28;20496;-74
2022/09/22 08:18:49;;;;;;;9.48;6.32;;;11.60;99.90;;;;;;5050462;28;20410;-74
2022/09/22 08:21:18;;;;;;;10.02;6.47;;;11.70;99.90;;;;;;5048610;28;20890;-74
2022/09/22 08:23:44;;;;;;;9.88;6.07;;;11.80;99.90;;;;;;5049639;28;20421;-74
2022/09/22 08:26:10;;;;;;;10.63;6.10;;;11.80;99.90;;;;;;5050511;28;20916;-75
2022/09/22 08:28:36;;;;;;;8.82;6.65;;;11.90;99.90;;;;;;5050714;28;20404;-74
2022/09/22 08:31:02;;;;;;;8.07;6.65;;;12.00;99.90;;;;;;5050732;28;20425;-75
2022/09/22 08:33:31;;;;;;;9.55;6.82;;;12.10;99.90;;;;;;5035595;28;20398;-74
2022/09/22 08:36:02;;;;;;;10.38;6.50;;;12.20;99.90;;;;;;5032605;28;20563;-74
2022/09/22 08:38:31;;;;;;;9.63;6.25;;;12.30;99.90;;;;;;5049218;28;20420;-75
2022/09/22 08:41:14;;;;;;;8.48;6.30;;;12.40;99.90;;;;;;5046364;28;20776;-74
2022/09/22 08:43:45;;;;;;;8.57;6.57;;;12.50;99.90;;;;;;5041804;28;20409;-75
2022/09/22 08:46:11;;;;;;;9.40;6.20;;;12.60;99.90;;;;;;5032591;28;21594;-75
2022/09/22 08:51:51;;;;;;;9.10;5.65;;;12.90;99.90;;;;;;5028351;28;20541;-75
2022/09/22 08:54:28;;;;;;;8.02;5.53;;;13.00;99.90;;;;;;5054444;28;20477;-75
2022/09/22 08:56:59;;;;;;;9.75;5.50;;;13.20;99.90;;;;;;5030509;28;20436;-75
2022/09/22 08:59:38;;;;;;;8.98;5.18;;;13.30;99.90;;;;;;5049330;28;20421;-75
2022/09/22 09:02:12;;;;;;;9.68;6.20;;;13.40;99.90;;;;;;5047539;28;20786;-74
2022/09/22 09:04:50;;;;;;;9.40;5.27;;;13.50;99.90;;;;;;5049801;28;20422;-75
2022/09/22 09:07:57;;;;;;;9.35;5.30;;;13.70;99.90;;;;;;5048612;28;20437;-75
2022/09/22 09:10:23;;;;;;;9.13;5.10;;;14.10;99.90;;;;;;5047766;28;20488;-75
2022/09/22 09:12:57;;;;;;;6.53;4.10;;;15.20;99.90;;;;;;5038526;28;20415;-75
2022/09/22 09:16:04;;;;;;;8.48;3.50;;;16.40;99.90;;;;;;5048619;28;20818;-75
2022/09/22 09:18:38;;;;;;;6.27;3.50;;;17.60;99.90;;;;;;5047414;28;20432;-76
2022/09/22 09:21:08;;;;;;;9.23;3.87;;;18.80;99.90;;;;;;5045366;28;20512;-72
2022/09/22 09:23:45;;;;;;;6.70;3.00;;;19.60;99.90;;;;;;5045868;28;20427;-73
2022/09/22 09:26:13;;;;;;;7.38;3.05;;;20.30;98.00;;;;;;5029897;28;20433;-73
2022/09/22 09:28:48;;;;;;;6.80;2.30;;;20.80;95.60;;;;;;5031579;28;20406;-72
2022/09/22 09:31:26;;;;;;;8.70;3.00;;;21.10;94.60;;;;;;5046152;28;20897;-74
2022/09/22 09:34:01;;;;;;;5.75;2.63;;;21.50;95.50;;;;;;5028260;28;20434;-74
2022/09/22 09:36:34;;;;;;;3.30;2.00;;;22.10;94.00;;;;;;5044981;28;20400;-74
2022/09/22 09:39:09;;;;;;;4.57;2.22;;;22.50;92.70;;;;;;5008792;28;20434;-74
2022/09/22 09:41:36;;;;;;;6.20;2.50;;;22.90;91.90;;;;;;5033303;28;20466;-74
2022/09/22 09:44:03;;;;;;;5.63;2.65;;;23.30;91.10;;;;;;5050158;28;20393;-74
2022/09/22 09:46:34;;;;;;;4.78;2.10;;;23.60;91.00;;;;;;5047310;28;20551;-74
2022/09/22 09:49:15;;;;;;;5.35;2.35;;;23.90;89.00;;;;;;5048059;28;20415;-74
2022/09/22 09:51:47;;;;;;;6.20;2.40;;;24.10;88.80;;;;;;5043407;28;20455;-74
2022/09/22 09:54:15;;;;;;;5.20;2.55;;;24.40;87.70;;;;;;5029523;28;20420;-75
2022/09/22 09:57:00;;;;;;;6.07;2.35;;;24.70;87.10;;;;;;5046116;28;20409;-74
2022/09/22 10:02:16;;;;;;;5.93;2.40;;;25.30;84.20;;;;;;5030119;28;20828;-75
2022/09/22 10:04:49;;;;;;;7.15;2.03;;;25.50;81.60;;;;;;5048006;28;20424;-74
2022/09/22 10:07:19;;;;;;;5.10;2.13;;;25.60;79.20;;;;;;5030314;28;20474;-74
2022/09/22 10:09:47;;;;;;;6.22;2.28;;;25.60;80.80;;;;;;5047833;28;20433;-75
2022/09/22 10:12:29;;;;;;;7.00;2.00;;;25.80;78.00;;;;;;5025999;28;20421;-75
2022/09/22 10:15:00;;;;;;;5.63;2.10;;;26.00;76.10;;;;;;5044549;28;20508;-74
2022/09/22 10:17:32;;;;;;;6.80;1.80;;;26.00;75.00;;;;;;5029919;28;20471;-75
2022/09/22 10:20:31;;;;;;;5.18;1.75;;;26.10;75.30;;;;;;5033738;28;20839;-74
2022/09/22 10:23:20;;;;;;;3.80;1.63;;;26.30;73.40;;;;;;5036446;28;20430;-74
2022/09/22 10:25:48;;;;;;;3.55;1.48;;;26.40;73.40;;;;;;5047162;28;20412;-75
2022/09/22 10:28:19;;;;;;;3.95;1.63;;;26.60;72.60;;;;;;5046575;28;20428;-74
2022/09/22 10:31:01;;;;;;;5.05;1.42;;;26.90;71.10;;;;;;5045510;28;20433;-74
2022/09/22 10:33:27;;;;;;;4.05;1.17;;;27.20;68.10;;;;;;5024014;28;20609;-74
2022/09/22 10:36:04;;;;;;;7.13;1.60;;;27.10;68.30;;;;;;5046213;28;20879;-74
2022/09/22 10:38:41;;;;;;;3.70;1.55;;;27.30;67.60;;;;;;5046163;28;20405;-74
2022/09/22 10:41:18;;;;;;;3.83;1.00;;;27.30;66.50;;;;;;5048189;28;20775;-74
2022/09/22 10:43:52;;;;;;;4.13;1.15;;;27.30;65.50;;;;;;5046312;28;20810;-74
2022/09/22 10:46:27;;;;;;;3.92;0.98;;;27.30;65.40;;;;;;5045316;28;20512;-74
2022/09/22 10:49:03;;;;;;;4.63;1.20;;;27.20;63.30;;;;;;5046040;28;20443;-73
2022/09/22 10:51:58;;;;;;;4.65;1.30;;;27.20;62.50;;;;;;5045897;28;20420;-73
2022/09/22 10:54:45;;;;;;;4.37;1.40;;;27.20;63.80;;;;;;5046038;28;20457;-73
2022/09/22 10:57:51;;;;;;;3.35;1.30;;;27.40;61.10;;;;;;5046193;28;20425;-74
2022/09/22 11:00:19;;;;;;;3.78;0.90;;;27.70;63.20;;;;;;5030041;28;20421;-75
2022/09/22 11:03:18;;;;;;;3.90;1.20;;;28.00;60.60;;;;;;5043352;28;20433;-75
2022/09/22 11:12:15;;;;;;;3.05;1.40;;;28.50;60.20;;;;;;5047289;28;20428;-74
2022/09/22 11:15:06;;;;;;;4.68;1.83;;;28.30;58.70;;;;;;5041787;28;20490;-74
2022/09/22 11:18:01;;;;;;;3.97;1.60;;;27.20;58.10;;;;;;5037200;28;20417;-74
2022/09/22 11:20:50;;;;;;;5.40;1.63;;;26.30;59.40;;;;;;5045331;28;20842;-74
2022/09/22 11:23:43;;;;;;;4.80;1.80;;;26.80;59.30;;;;;;5045760;28;20487;-74
2022/09/22 11:26:21;;;;;;;4.07;1.20;;;27.50;58.80;;;;;;5046086;28;21124;-74
2022/09/22 11:29:08;;;;;;;4.07;1.38;;;27.20;58.60;;;;;;5046698;28;20417;-74
2022/09/22 11:31:46;;;;;;;3.60;1.27;;;26.40;58.30;;;;;;5045235;28;20448;-74
2022/09/22 11:34:29;;;;;;;5.03;1.30;;;25.50;58.20;;;;;;5046058;28;20942;-74
2022/09/22 11:36:57;;;;;;;3.67;1.40;;;25.80;59.80;;;;;;5045922;28;20413;-73
2022/09/22 11:39:35;;;;;;;3.33;1.17;;;26.50;59.00;;;;;;5046485;28;20413;-74
2022/09/22 11:42:27;;;;;;;3.17;1.30;;;27.00;57.00;;;;;;5029249;28;20538;-73
2022/09/22 11:45:12;;;;;;;6.18;1.52;;;26.50;55.80;;;;;;5046410;28;20401;-73
2022/09/22 11:48:06;;;;;;;4.80;1.00;;;25.60;57.40;;;;;;5031123;28;20413;-73
2022/09/22 11:50:55;;;;;;;4.45;1.55;;;25.50;59.30;;;;;;5048116;28;20954;-75
2022/09/22 11:53:30;;;;;;;5.75;1.30;;;26.20;57.50;;;;;;5025474;28;20498;-75
2022/09/22 11:56:37;;;;;;;5.10;1.30;;;26.90;56.80;;;;;;5051154;28;20555;-74
2022/09/22 11:59:31;;;;;;;3.70;1.00;;;27.70;55.70;;;;;;5026850;28;20463;-74
2022/09/22 12:02:03;;;;;;;2.63;1.10;;;27.70;56.10;;;;;;5048700;28;20421;-74
2022/09/22 12:04:38;;;;;;;3.53;1.17;;;26.80;54.90;;;;;;5032031;28;20405;-73
2022/09/22 12:07:23;;;;;;;3.23;1.13;;;25.80;55.30;;;;;;5057025;28;20486;-73
2022/09/22 12:10:21;;;;;;;3.88;1.25;;;24.90;56.60;;;;;;5036038;28;20437;-73
2022/09/22 12:12:49;;;;;;;5.10;1.40;;;24.20;57.20;;;;;;5046927;28;20428;-74
2022/09/22 12:15:45;;;;;;;5.97;1.50;;;23.80;58.30;;;;;;5046191;28;20985;-74
2022/09/22 12:18:35;;;;;;;4.32;1.13;;;24.10;57.80;;;;;;5030350;28;20428;-74
2022/09/22 12:21:21;;;;;;;4.07;1.23;;;24.00;57.60;;;;;;5028983;28;20415;-74
2022/09/22 12:23:48;;;;;;;4.55;1.60;;;23.60;58.60;;;;;;5048767;28;20447;-74
2022/09/22 12:26:32;;;;;;;5.28;1.50;;;23.20;58.30;;;;;;5023648;28;20406;-75
2022/09/22 12:28:59;;;;;;;4.95;1.10;;;22.80;59.00;;;;;;5048828;28;20796;-74
2022/09/22 12:31:37;;;;;;;4.72;1.60;;;22.50;60.00;;;;;;5049568;28;20401;-74
2022/09/22 12:34:05;;;;;;;3.33;1.35;;;22.30;61.40;;;;;;5048975;28;20487;-74
2022/09/22 12:36:37;;;;;;;3.80;1.30;;;22.40;60.60;;;;;;5048562;28;20401;-75
2022/09/22 12:39:16;;;;;;;3.95;1.40;;;23.30;61.10;;;;;;5046265;28;20504;-75
2022/09/22 12:41:48;;;;;;;3.22;1.38;;;24.00;59.50;;;;;;5048419;28;20899;-74
2022/09/22 12:44:19;;;;;;;6.60;1.70;;;23.80;59.20;;;;;;5049334;28;20402;-74
2022/09/22 12:46:46;;;;;;;4.27;1.60;;;23.30;58.40;;;;;;5050300;28;21044;-74
2022/09/22 12:49:20;;;;;;;4.97;1.65;;;22.80;58.90;;;;;;5050060;28;20417;-74
2022/09/22 12:51:46;;;;;;;5.13;1.60;;;23.20;60.10;;;;;;5047983;28;20428;-74
2022/09/22 12:54:21;;;;;;;5.93;1.65;;;24.10;59.60;;;;;;5048800;28;20397;-74
2022/09/22 12:57:05;;;;;;;4.43;1.58;;;24.90;57.70;;;;;;5025447;28;20490;-74
2022/09/22 12:59:36;;;;;;;4.28;1.40;;;24.50;56.70;;;;;;5048413;28;20762;-75
2022/09/22 13:02:17;;;;;;;4.45;1.38;;;24.00;58.10;;;;;;5049392;28;20791;-74
2022/09/22 13:04:54;;;;;;;4.25;1.65;;;24.40;58.30;;;;;;5048563;28;20500;-74
2022/09/22 13:07:34;;;;;;;5.30;1.80;;;24.90;57.20;;;;;;5045295;28;20444;-75
2022/09/22 13:10:21;;;;;;;3.45;1.67;;;24.70;55.70;;;;;;5050568;28;20429;-75
2022/09/22 13:13:02;;;;;;;3.78;1.70;;;24.20;57.50;;;;;;5047082;28;20475;-75
2022/09/22 13:15:42;;;;;;;4.32;1.70;;;23.60;57.80;;;;;;5049598;28;20479;-74
2022/09/22 13:18:26;;;;;;;5.15;1.88;;;23.20;58.70;;;;;;5031520;28;20880;-74
2022/09/22 13:20:52;;;;;;;4.57;1.63;;;22.80;59.20;;;;;;5049790;28;20413;-74
2022/09/22 13:23:18;;;;;;;5.43;1.80;;;22.60;59.10;;;;;;5033072;28;20406;-74
2022/09/22 13:25:43;;;;;;;3.70;1.80;;;22.60;59.50;;;;;;5048295;28;20416;-74